Time;durP1;ratioP1;P1;durP2;ratioP2;P2;SDS_P1;SDS_P2;PMS_P1;PMS_P2;Temp;Humidity;BMP_temperature;BMP_pressure;BME280_temperature;BME280_humidity;BME280_pressure;Samples;Min_cycle;Max_cycle;Signal;HPM_P1;HPM_P2
2024/03/27 00:00:23;;;;;;;1.90;0.60;;;10.90;95.20;;;;;;4797316;29;20416;-86
2024/03/27 00:02:49;;;;;;;2.38;0.50;;;10.90;95.30;;;;;;4782989;29;20137;-86
2024/03/27 00:05:15;;;;;;;1.42;0.57;;;10.90;95.20;;;;;;4782314;29;20101;-87
2024/03/27 00:07:42;;;;;;;1.48;0.50;;;10.80;95.20;;;;;;4800371;29;20073;-86
2024/03/27 00:10:08;;;;;;;1.88;0.47;;;10.90;95.20;;;;;;4811620;29;20067;-86
2024/03/27 00:12:34;;;;;;;1.98;0.80;;;10.90;95.40;;;;;;4781574;29;20047;-87
2024/03/27 00:15:01;;;;;;;1.08;0.50;;;10.90;95.20;;;;;;4796530;29;20411;-86
2024/03/27 00:17:27;;;;;;;1.25;0.40;;;10.80;95.10;;;;;;4773079;29;20137;-86
2024/03/27 00:19:53;;;;;;;1.13;0.55;;;10.80;95.10;;;;;;4796340;29;20057;-86
2024/03/27 00:22:19;;;;;;;0.80;0.40;;;10.80;95.10;;;;;;4796037;29;20046;-86
2024/03/27 00:24:46;;;;;;;1.40;0.55;;;10.80;95.10;;;;;;4810722;29;20110;-86
2024/03/27 00:27:12;;;;;;;1.00;0.38;;;10.80;95.10;;;;;;4784241;29;20070;-86
2024/03/27 00:29:38;;;;;;;1.50;0.50;;;10.80;95.10;;;;;;4780939;29;20046;-87
2024/03/27 00:32:05;;;;;;;0.98;0.47;;;10.80;95.10;;;;;;4764496;29;20059;-87
2024/03/27 00:34:32;;;;;;;1.08;0.40;;;10.80;95.10;;;;;;4797090;29;20415;-87
2024/03/27 00:36:59;;;;;;;1.10;0.50;;;10.80;95.10;;;;;;4825260;29;20039;-86
2024/03/27 00:39:26;;;;;;;1.55;0.50;;;10.80;95.10;;;;;;4781463;29;20410;-86
2024/03/27 00:41:52;;;;;;;1.40;0.60;;;10.80;95.10;;;;;;4780808;29;20058;-86
2024/03/27 00:44:18;;;;;;;0.88;0.50;;;10.80;95.10;;;;;;4780870;29;20065;-87
2024/03/27 00:46:43;;;;;;;1.60;0.55;;;10.80;95.10;;;;;;4780865;29;20514;-86
2024/03/27 00:49:09;;;;;;;2.45;0.40;;;10.80;95.10;;;;;;4795842;29;20392;-86
2024/03/27 00:51:35;;;;;;;2.45;0.50;;;10.70;95.30;;;;;;4795924;29;20046;-86
2024/03/27 00:54:01;;;;;;;1.80;0.73;;;10.70;95.10;;;;;;4781329;29;20051;-86
2024/03/27 00:56:27;;;;;;;1.45;0.60;;;10.70;95.10;;;;;;4780878;29;20043;-86
2024/03/27 00:58:53;;;;;;;0.85;0.50;;;10.70;95.10;;;;;;4780754;29;20397;-87
2024/03/27 01:01:19;;;;;;;1.45;0.40;;;10.70;95.10;;;;;;4810618;29;20511;-86
2024/03/27 01:03:46;;;;;;;1.50;0.60;;;10.60;95.20;;;;;;4795488;29;20109;-86
2024/03/27 01:06:12;;;;;;;0.95;0.50;;;10.60;95.20;;;;;;4780866;29;20050;-86
2024/03/27 01:08:37;;;;;;;1.55;0.68;;;10.50;95.20;;;;;;4781029;29;20512;-87
2024/03/27 01:11:04;;;;;;;1.17;0.50;;;10.50;95.30;;;;;;4780430;29;20446;-87
2024/03/27 01:13:30;;;;;;;1.13;0.57;;;10.40;95.40;;;;;;4795377;29;20051;-87
2024/03/27 01:15:55;;;;;;;0.93;0.40;;;10.40;95.50;;;;;;4810784;29;20125;-87
2024/03/27 01:18:24;;;;;;;1.33;0.55;;;10.30;95.50;;;;;;4801515;29;20050;-86
2024/03/27 01:20:50;;;;;;;0.85;0.40;;;10.20;95.60;;;;;;4761642;29;20058;-81
2024/03/27 01:23:16;;;;;;;0.95;0.50;;;10.20;95.70;;;;;;4777290;29;20095;-81
2024/03/27 01:25:42;;;;;;;1.17;0.40;;;10.10;95.80;;;;;;4779721;29;20419;-81
2024/03/27 01:28:10;;;;;;;1.75;0.47;;;10.10;95.90;;;;;;4807255;29;20057;-82
2024/03/27 01:30:36;;;;;;;1.73;0.60;;;10.00;95.90;;;;;;4829374;29;20435;-82
2024/03/27 01:33:02;;;;;;;1.08;0.32;;;10.00;96.00;;;;;;4810904;29;20461;-82
2024/03/27 01:35:28;;;;;;;0.93;0.40;;;9.90;96.10;;;;;;4794267;29;20407;-82
2024/03/27 01:37:54;;;;;;;1.70;0.50;;;9.90;96.10;;;;;;4809223;29;20042;-81
2024/03/27 01:40:20;;;;;;;1.83;0.55;;;9.80;96.20;;;;;;4786385;29;20099;-81
2024/03/27 01:42:56;;;;;;;1.92;0.60;;;9.80;96.20;;;;;;4779854;29;20054;-82
2024/03/27 01:45:22;;;;;;;1.17;0.55;;;9.80;96.20;;;;;;4794318;29;20050;-82
2024/03/27 01:47:48;;;;;;;0.80;0.40;;;9.80;96.20;;;;;;4779405;29;20115;-81
2024/03/27 01:50:15;;;;;;;1.05;0.43;;;9.80;96.20;;;;;;4779384;29;20137;-81
2024/03/27 01:52:41;;;;;;;1.77;0.63;;;9.80;96.30;;;;;;4779265;29;20441;-82
2024/03/27 01:55:08;;;;;;;1.65;0.60;;;9.80;96.20;;;;;;4779486;29;20050;-81
2024/03/27 01:57:37;;;;;;;0.95;0.50;;;9.80;96.20;;;;;;4778412;29;20541;-81
2024/03/27 02:00:08;;;;;;;2.05;0.65;;;9.80;96.20;;;;;;4795409;29;20511;-82
2024/03/27 02:02:40;;;;;;;1.52;0.55;;;9.80;96.30;;;;;;4799963;29;20133;-82
2024/03/27 02:05:07;;;;;;;1.27;0.50;;;9.80;96.30;;;;;;4787688;29;20069;-82
2024/03/27 02:07:33;;;;;;;2.05;0.65;;;9.80;96.30;;;;;;4781329;29;20054;-82
2024/03/27 02:10:02;;;;;;;1.00;0.50;;;9.80;96.30;;;;;;4778995;29;20042;-81
2024/03/27 02:12:28;;;;;;;1.23;0.47;;;9.80;96.30;;;;;;4782563;29;20526;-81
2024/03/27 02:14:54;;;;;;;1.92;0.47;;;9.80;96.30;;;;;;4778972;29;20050;-81
2024/03/27 02:17:20;;;;;;;1.40;0.57;;;9.80;96.30;;;;;;4779313;29;20054;-82
2024/03/27 02:19:46;;;;;;;1.23;0.50;;;9.80;96.60;;;;;;4808809;29;20103;-82
2024/03/27 02:22:12;;;;;;;1.67;0.55;;;9.80;96.40;;;;;;4778933;29;20077;-82
2024/03/27 02:24:47;;;;;;;1.95;0.50;;;9.80;96.40;;;;;;4778773;29;20058;-82
2024/03/27 02:27:13;;;;;;;1.45;0.45;;;9.80;96.40;;;;;;4793797;29;20572;-82
2024/03/27 02:29:39;;;;;;;1.15;0.52;;;9.80;96.50;;;;;;4794008;29;20042;-82
2024/03/27 02:32:08;;;;;;;1.42;0.35;;;9.80;96.50;;;;;;4778544;29;20086;-82
2024/03/27 02:34:34;;;;;;;1.15;0.50;;;9.80;96.50;;;;;;4778446;29;20081;-82
2024/03/27 02:37:00;;;;;;;1.10;0.40;;;9.70;96.60;;;;;;4763699;29;20038;-82
2024/03/27 02:39:26;;;;;;;1.38;0.45;;;9.70;96.60;;;;;;4778553;29;20057;-82
2024/03/27 02:41:53;;;;;;;2.78;0.50;;;9.70;96.70;;;;;;4808382;29;20418;-81
2024/03/27 02:44:19;;;;;;;1.88;0.40;;;9.70;96.70;;;;;;4778693;29;20047;-82
2024/03/27 02:46:45;;;;;;;0.98;0.47;;;9.70;96.80;;;;;;4793510;29;20456;-82
2024/03/27 02:49:11;;;;;;;1.38;0.60;;;9.60;96.80;;;;;;4778455;29;20046;-82
2024/03/27 02:51:37;;;;;;;1.02;0.50;;;9.60;96.90;;;;;;4778667;29;20052;-82
2024/03/27 02:54:06;;;;;;;2.67;0.60;;;9.60;96.90;;;;;;4824627;29;20049;-82
2024/03/27 02:56:33;;;;;;;1.27;0.57;;;9.50;97.20;;;;;;4802313;29;20050;-81
2024/03/27 02:58:59;;;;;;;1.27;0.50;;;9.50;97.00;;;;;;4778093;29;20173;-82
2024/03/27 03:01:25;;;;;;;1.30;0.73;;;9.50;97.00;;;;;;4778264;29;20496;-81
2024/03/27 03:03:51;;;;;;;1.15;0.50;;;9.40;97.30;;;;;;4778213;29;20062;-81
2024/03/27 03:06:17;;;;;;;1.42;0.60;;;9.40;97.10;;;;;;4793025;29;20586;-82
2024/03/27 03:08:43;;;;;;;1.67;0.60;;;9.40;97.10;;;;;;4777863;29;20054;-81
2024/03/27 03:11:09;;;;;;;1.40;0.63;;;9.40;97.20;;;;;;4793573;29;20088;-82
2024/03/27 03:13:35;;;;;;;1.42;0.60;;;9.40;97.30;;;;;;4792791;29;20552;-82
2024/03/27 03:16:01;;;;;;;2.22;0.63;;;9.40;97.30;;;;;;4792928;29;20058;-82
2024/03/27 03:18:27;;;;;;;1.33;0.60;;;9.30;97.30;;;;;;4778262;29;20054;-82
2024/03/27 03:21:03;;;;;;;1.52;0.68;;;9.40;97.30;;;;;;4777890;29;20116;-81
2024/03/27 03:23:30;;;;;;;1.52;0.70;;;9.40;97.20;;;;;;4816866;29;20046;-81
2024/03/27 03:25:56;;;;;;;1.05;0.52;;;9.30;97.30;;;;;;4797837;29;20046;-82
2024/03/27 03:28:22;;;;;;;1.77;0.80;;;9.40;97.30;;;;;;4794697;29;20457;-81
2024/03/27 03:30:49;;;;;;;1.08;0.40;;;9.40;97.40;;;;;;4803523;29;20183;-81
2024/03/27 03:33:14;;;;;;;1.13;0.50;;;9.40;97.30;;;;;;4777886;29;20057;-81
2024/03/27 03:35:41;;;;;;;1.75;0.47;;;9.40;97.30;;;;;;4778005;29;20042;-82
2024/03/27 03:38:07;;;;;;;1.83;0.50;;;9.40;97.30;;;;;;4793001;29;20045;-82
2024/03/27 03:40:48;;;;;;;2.47;0.50;;;9.40;97.40;;;;;;4774599;29;20047;-82
2024/03/27 03:43:14;;;;;;;1.25;0.60;;;9.50;97.40;;;;;;4757880;29;20057;-81
2024/03/27 03:45:40;;;;;;;1.27;0.40;;;9.40;97.40;;;;;;4779016;29;20058;-82
2024/03/27 03:48:06;;;;;;;1.98;0.47;;;9.40;97.40;;;;;;4792811;29;20054;-81
2024/03/27 03:50:33;;;;;;;0.77;0.32;;;9.40;97.50;;;;;;4777850;29;20162;-81
2024/03/27 03:52:59;;;;;;;1.02;0.30;;;9.40;97.50;;;;;;4777594;29;20088;-82
2024/03/27 03:55:25;;;;;;;1.83;0.52;;;9.40;97.50;;;;;;4777951;29;20078;-82
2024/03/27 03:57:51;;;;;;;1.70;0.63;;;9.50;97.50;;;;;;4777524;29;20077;-81
2024/03/27 04:00:20;;;;;;;2.35;0.52;;;9.50;97.70;;;;;;4777605;29;20508;-81
2024/03/27 04:02:50;;;;;;;1.05;0.50;;;9.50;97.50;;;;;;4807317;29;20106;-82
2024/03/27 04:05:16;;;;;;;1.15;0.50;;;9.60;97.50;;;;;;4777922;29;20176;-81
2024/03/27 04:07:42;;;;;;;1.85;0.40;;;9.60;97.40;;;;;;4798933;29;20042;-82
2024/03/27 04:10:08;;;;;;;1.77;0.60;;;9.60;97.40;;;;;;4777908;29;20147;-82
2024/03/27 04:12:37;;;;;;;0.95;0.45;;;9.60;97.30;;;;;;4792537;29;20062;-81
2024/03/27 04:15:05;;;;;;;1.23;0.60;;;9.70;97.30;;;;;;4777697;29;20047;-82
2024/03/27 04:17:31;;;;;;;2.20;0.60;;;9.60;97.30;;;;;;4792206;29;20060;-81
2024/03/27 04:20:00;;;;;;;1.23;0.40;;;9.70;97.40;;;;;;4764469;29;20057;-82
2024/03/27 04:22:31;;;;;;;0.80;0.30;;;9.70;97.40;;;;;;4780812;29;20111;-81
2024/03/27 04:24:57;;;;;;;2.38;0.50;;;9.70;97.40;;;;;;4795641;29;20066;-82
2024/03/27 04:27:24;;;;;;;0.70;0.30;;;9.60;97.50;;;;;;4810610;29;20062;-82
2024/03/27 04:29:54;;;;;;;1.05;0.50;;;9.70;97.50;;;;;;4795538;29;20091;-82
2024/03/27 04:32:20;;;;;;;1.70;0.65;;;9.70;97.80;;;;;;4783138;29;20043;-82
2024/03/27 04:34:46;;;;;;;1.60;0.50;;;9.60;97.50;;;;;;4804069;29;20103;-86
2024/03/27 04:37:12;;;;;;;2.67;0.40;;;9.60;97.60;;;;;;4778057;29;20035;-86
2024/03/27 04:39:38;;;;;;;0.88;0.43;;;9.60;97.60;;;;;;4792072;29;20062;-87
2024/03/27 04:42:08;;;;;;;1.27;0.52;;;9.60;97.60;;;;;;4781279;29;20491;-85
2024/03/27 04:44:35;;;;;;;1.05;0.60;;;9.60;97.70;;;;;;4810881;29;20126;-87
2024/03/27 04:47:02;;;;;;;1.50;0.50;;;9.60;97.70;;;;;;4797979;29;20050;-86
2024/03/27 04:49:28;;;;;;;1.35;0.50;;;9.60;97.80;;;;;;4794698;29;20050;-86
2024/03/27 04:51:53;;;;;;;1.33;0.63;;;9.60;97.80;;;;;;4801499;29;20042;-86
2024/03/27 04:54:20;;;;;;;1.77;0.60;;;9.60;97.90;;;;;;4792153;29;20137;-87
2024/03/27 04:56:46;;;;;;;1.92;0.70;;;9.50;97.90;;;;;;4795639;29;20115;-86
2024/03/27 04:59:12;;;;;;;1.27;0.60;;;9.50;98.00;;;;;;4780792;29;20038;-86
2024/03/27 05:01:38;;;;;;;2.13;0.65;;;9.50;98.00;;;;;;4780876;29;20448;-86
2024/03/27 05:04:04;;;;;;;1.70;0.60;;;9.50;98.10;;;;;;4795384;29;20133;-86
2024/03/27 05:06:30;;;;;;;1.85;0.60;;;9.50;98.10;;;;;;4795321;29;20047;-86
2024/03/27 05:08:56;;;;;;;1.73;0.70;;;9.40;98.20;;;;;;4780632;29;20133;-86
2024/03/27 05:11:22;;;;;;;2.03;0.80;;;9.40;98.30;;;;;;4770232;29;20158;-86
2024/03/27 05:13:48;;;;;;;1.20;0.50;;;9.40;98.30;;;;;;4795485;29;20043;-86
2024/03/27 05:16:14;;;;;;;1.30;0.45;;;9.40;98.40;;;;;;4780670;29;20062;-86
2024/03/27 05:18:40;;;;;;;1.42;0.60;;;9.40;98.50;;;;;;4795642;29;20126;-86
2024/03/27 05:21:08;;;;;;;1.75;0.60;;;9.30;98.50;;;;;;4780333;29;20062;-86
2024/03/27 05:23:36;;;;;;;1.48;0.65;;;9.30;98.50;;;;;;4780947;29;20404;-87
2024/03/27 05:26:03;;;;;;;1.90;0.70;;;9.30;98.60;;;;;;4768145;29;20043;-86
2024/03/27 05:28:30;;;;;;;1.70;0.93;;;9.30;98.60;;;;;;4780577;29;20038;-86
2024/03/27 05:30:56;;;;;;;1.73;0.80;;;9.30;98.60;;;;;;4795142;29;20050;-85
2024/03/27 05:33:22;;;;;;;1.83;0.80;;;9.40;98.60;;;;;;4781039;29;20077;-87
2024/03/27 05:35:48;;;;;;;1.85;0.85;;;9.40;98.60;;;;;;4816308;29;20046;-86
2024/03/27 05:38:14;;;;;;;1.70;0.70;;;9.40;98.50;;;;;;4795521;29;20039;-87
2024/03/27 05:40:40;;;;;;;2.60;0.57;;;9.50;98.50;;;;;;4794577;29;20457;-87
2024/03/27 05:43:06;;;;;;;1.35;0.50;;;9.60;98.50;;;;;;4794975;29;20050;-88
2024/03/27 05:45:32;;;;;;;1.45;0.60;;;9.60;98.50;;;;;;4779580;29;20103;-85
2024/03/27 05:47:58;;;;;;;1.67;0.65;;;9.60;98.50;;;;;;4794398;29;20153;-84
2024/03/27 05:50:25;;;;;;;1.90;0.63;;;9.70;98.50;;;;;;4779704;29;20054;-85
2024/03/27 05:52:51;;;;;;;3.30;1.10;;;9.70;98.50;;;;;;4794770;29;20058;-85
2024/03/27 05:55:17;;;;;;;1.75;0.65;;;9.80;98.40;;;;;;4779703;29;20039;-85
2024/03/27 05:57:43;;;;;;;0.70;0.38;;;9.80;98.40;;;;;;4794464;29;20050;-84
2024/03/27 06:00:09;;;;;;;1.52;0.60;;;9.90;98.40;;;;;;4779795;29;20512;-84
2024/03/27 06:02:38;;;;;;;1.58;0.63;;;9.90;98.40;;;;;;4766762;29;20144;-81
2024/03/27 06:05:05;;;;;;;2.22;0.80;;;10.00;98.40;;;;;;4779348;29;20133;-80
2024/03/27 06:07:31;;;;;;;2.13;0.82;;;10.10;98.40;;;;;;4779397;29;20495;-81
2024/03/27 06:09:57;;;;;;;1.50;0.60;;;10.10;98.30;;;;;;4778962;29;20058;-80
2024/03/27 06:12:23;;;;;;;1.67;0.85;;;10.10;98.20;;;;;;4778861;29;20050;-81
2024/03/27 06:14:49;;;;;;;2.03;0.60;;;10.20;98.20;;;;;;4779927;29;20043;-81
2024/03/27 06:17:15;;;;;;;2.35;1.00;;;10.20;98.20;;;;;;4779156;29;20038;-81
2024/03/27 06:19:41;;;;;;;0.98;0.60;;;10.30;98.30;;;;;;4779283;29;20512;-81
2024/03/27 06:22:07;;;;;;;1.48;0.90;;;10.30;98.20;;;;;;4793949;29;20054;-81
2024/03/27 06:24:33;;;;;;;1.48;0.60;;;10.30;98.20;;;;;;4778886;29;20103;-81
2024/03/27 06:26:59;;;;;;;1.15;0.50;;;10.40;98.30;;;;;;4778903;29;20054;-81
2024/03/27 06:29:25;;;;;;;1.77;0.75;;;10.40;98.20;;;;;;4778574;29;20050;-81
2024/03/27 06:31:51;;;;;;;1.88;0.85;;;10.40;98.30;;;;;;4778536;29;20183;-80
2024/03/27 06:34:17;;;;;;;1.92;0.98;;;10.40;98.30;;;;;;4780626;29;20042;-81
2024/03/27 06:36:43;;;;;;;2.38;0.93;;;10.50;98.30;;;;;;4778586;29;20076;-80
2024/03/27 06:39:12;;;;;;;1.83;0.90;;;10.50;98.30;;;;;;4779041;29;20488;-81
2024/03/27 06:41:42;;;;;;;1.65;0.80;;;10.50;98.30;;;;;;4779055;29;20508;-81
2024/03/27 06:44:09;;;;;;;3.03;1.25;;;10.50;98.30;;;;;;4778872;29;20057;-81
2024/03/27 06:46:38;;;;;;;2.42;1.00;;;10.50;98.40;;;;;;4809176;29;20046;-81
2024/03/27 06:49:19;;;;;;;2.35;1.30;;;10.50;98.40;;;;;;4778585;29;20626;-81
2024/03/27 06:51:46;;;;;;;2.38;1.35;;;10.50;98.40;;;;;;4808219;29;20050;-81
2024/03/27 06:54:12;;;;;;;3.47;1.80;;;10.50;98.40;;;;;;4778098;29;20110;-81
2024/03/27 06:56:38;;;;;;;4.70;2.40;;;10.50;98.50;;;;;;4808446;29;20057;-80
2024/03/27 06:59:04;;;;;;;3.95;2.17;;;10.50;98.60;;;;;;4763829;29;20047;-80
2024/03/27 07:01:30;;;;;;;4.32;2.50;;;10.50;98.70;;;;;;4808907;29;20090;-81
2024/03/27 07:03:56;;;;;;;4.70;2.60;;;10.40;98.90;;;;;;4778381;29;20058;-80
2024/03/27 07:06:22;;;;;;;4.57;2.63;;;10.40;99.10;;;;;;4778106;29;20115;-80
2024/03/27 07:08:48;;;;;;;5.53;3.20;;;10.40;99.20;;;;;;4774906;29;20097;-81
2024/03/27 07:11:14;;;;;;;4.80;2.83;;;10.30;99.40;;;;;;4805148;29;20054;-86
2024/03/27 07:13:40;;;;;;;5.03;2.90;;;10.30;99.50;;;;;;4793836;29;20055;-86
2024/03/27 07:16:07;;;;;;;4.35;2.53;;;10.30;99.70;;;;;;4799037;29;20107;-81
2024/03/27 07:18:34;;;;;;;6.63;3.60;;;10.30;99.90;;;;;;4792632;29;20042;-81
2024/03/27 07:21:01;;;;;;;14.27;4.55;;;10.20;99.90;;;;;;4777796;29;20530;-81
2024/03/27 07:23:27;;;;;;;7.43;4.47;;;10.20;99.90;;;;;;4778275;29;20050;-81
2024/03/27 07:25:54;;;;;;;8.98;5.75;;;10.10;99.90;;;;;;4793069;29;20058;-81
2024/03/27 07:28:20;;;;;;;9.35;5.80;;;10.00;99.90;;;;;;4777797;29;20058;-81
2024/03/27 07:30:50;;;;;;;7.88;5.53;;;9.90;99.90;;;;;;4793906;29;20058;-86
2024/03/27 07:33:17;;;;;;;9.90;6.22;;;9.80;99.90;;;;;;4778418;29;20496;-86
2024/03/27 07:35:43;;;;;;;11.82;7.20;;;9.70;99.90;;;;;;4778896;29;20061;-86
2024/03/27 07:38:10;;;;;;;11.98;6.50;;;9.60;99.90;;;;;;4778746;29;20153;-86
2024/03/27 07:40:36;;;;;;;8.98;5.40;;;9.50;99.90;;;;;;4825156;29;20039;-86
2024/03/27 07:43:02;;;;;;;11.07;6.45;;;9.40;99.90;;;;;;4764855;29;20518;-84
2024/03/27 07:45:28;;;;;;;10.52;5.55;;;9.40;99.90;;;;;;4778758;29;20043;-84
2024/03/27 07:47:55;;;;;;;9.63;5.82;;;9.40;99.90;;;;;;4778584;29;20077;-86
2024/03/27 07:50:21;;;;;;;13.57;8.25;;;9.40;99.90;;;;;;4775871;29;20524;-87
2024/03/27 07:52:47;;;;;;;12.75;8.02;;;9.30;99.90;;;;;;4807897;29;20046;-85
2024/03/27 07:55:13;;;;;;;15.45;9.45;;;9.20;99.90;;;;;;4795020;29;20472;-84
2024/03/27 07:57:39;;;;;;;15.45;9.55;;;9.20;99.90;;;;;;4781265;29;20055;-83
2024/03/27 08:00:11;;;;;;;16.63;9.85;;;9.20;99.90;;;;;;4781096;29;20069;-82
2024/03/27 08:02:40;;;;;;;13.93;9.00;;;9.10;99.90;;;;;;4796166;29;20098;-83
2024/03/27 08:05:07;;;;;;;12.38;8.02;;;9.10;99.90;;;;;;4811127;29;20065;-81
2024/03/27 08:07:36;;;;;;;11.50;6.90;;;9.00;99.90;;;;;;4796466;29;20411;-82
2024/03/27 08:10:06;;;;;;;11.45;7.47;;;9.00;99.90;;;;;;4810799;29;20085;-82
2024/03/27 08:12:32;;;;;;;11.85;7.07;;;9.00;99.90;;;;;;4808308;29;20046;-82
2024/03/27 08:14:58;;;;;;;10.30;6.32;;;8.90;99.90;;;;;;4807091;29;20421;-82
2024/03/27 08:17:24;;;;;;;8.73;5.60;;;9.00;99.90;;;;;;4781086;29;20046;-82
2024/03/27 08:19:50;;;;;;;11.20;6.20;;;9.00;99.90;;;;;;4781255;29;20141;-82
2024/03/27 08:22:19;;;;;;;9.07;6.15;;;8.90;99.90;;;;;;4780812;29;20059;-82
2024/03/27 08:24:45;;;;;;;10.70;6.88;;;8.90;99.90;;;;;;4777880;29;20041;-82
2024/03/27 08:27:11;;;;;;;11.95;7.00;;;8.90;99.90;;;;;;4752101;29;20503;-82
2024/03/27 08:29:37;;;;;;;12.32;8.38;;;8.90;99.90;;;;;;4834166;29;20050;-80
2024/03/27 08:32:03;;;;;;;13.32;9.40;;;8.80;99.90;;;;;;4777585;29;20129;-78
2024/03/27 08:34:29;;;;;;;15.77;10.05;;;8.80;99.90;;;;;;4790992;29;20129;-78
2024/03/27 08:36:55;;;;;;;12.70;8.70;;;8.70;99.90;;;;;;4795451;29;20051;-79
2024/03/27 08:39:22;;;;;;;14.20;9.48;;;8.70;99.90;;;;;;4825892;29;20035;-78
2024/03/27 08:41:49;;;;;;;10.90;8.00;;;8.70;99.90;;;;;;4796189;29;20049;-78
2024/03/27 08:44:18;;;;;;;14.00;9.15;;;8.80;99.90;;;;;;4811030;29;20519;-77
2024/03/27 08:46:44;;;;;;;15.55;9.60;;;8.80;99.90;;;;;;4797892;29;20491;-77
2024/03/27 08:49:13;;;;;;;13.82;7.82;;;8.90;99.90;;;;;;4829823;29;20050;-78
2024/03/27 08:51:40;;;;;;;12.55;8.52;;;9.00;99.90;;;;;;4802753;29;20039;-78
2024/03/27 08:54:06;;;;;;;12.77;8.40;;;9.00;99.90;;;;;;4795243;29;20087;-79
2024/03/27 08:56:32;;;;;;;13.27;8.38;;;9.10;99.90;;;;;;4780597;29;20505;-77
2024/03/27 08:58:58;;;;;;;10.60;7.00;;;9.20;99.90;;;;;;4787787;29;20054;-77
2024/03/27 09:01:25;;;;;;;12.63;7.88;;;9.30;99.90;;;;;;4809800;29;20051;-78
2024/03/27 09:03:51;;;;;;;12.63;8.15;;;9.40;99.90;;;;;;4809989;29;20190;-78
2024/03/27 09:06:17;;;;;;;16.13;11.27;;;9.40;99.90;;;;;;4809597;29;20125;-78
2024/03/27 09:08:43;;;;;;;16.15;10.68;;;9.40;99.90;;;;;;4791149;29;20518;-78
2024/03/27 09:11:09;;;;;;;13.48;8.55;;;9.40;99.90;;;;;;4802544;29;20042;-78
2024/03/27 09:13:36;;;;;;;14.60;9.65;;;9.40;99.90;;;;;;4794761;29;20564;-77
2024/03/27 09:16:03;;;;;;;13.88;9.48;;;9.50;99.90;;;;;;4794603;29;20575;-77
2024/03/27 09:18:29;;;;;;;12.07;7.35;;;9.50;99.90;;;;;;4780250;29;20053;-78
2024/03/27 09:21:00;;;;;;;12.50;8.10;;;9.60;99.90;;;;;;4810041;29;20050;-78
2024/03/27 09:23:27;;;;;;;9.32;6.07;;;9.60;99.90;;;;;;4810415;29;20504;-79
2024/03/27 09:25:54;;;;;;;9.48;6.30;;;9.70;99.90;;;;;;4780340;29;20050;-78
2024/03/27 09:28:21;;;;;;;9.68;6.43;;;9.80;99.90;;;;;;4779092;29;20061;-78
2024/03/27 09:30:48;;;;;;;9.80;6.13;;;9.80;99.90;;;;;;4791358;29;20042;-78
2024/03/27 09:33:14;;;;;;;9.60;6.30;;;9.80;99.90;;;;;;4794935;29;20057;-77
2024/03/27 09:35:42;;;;;;;9.43;5.60;;;9.80;99.90;;;;;;4809823;29;20061;-78
2024/03/27 09:38:12;;;;;;;9.50;6.00;;;9.70;99.90;;;;;;4794719;29;20046;-78
2024/03/27 09:40:45;;;;;;;10.00;6.28;;;9.70;99.90;;;;;;4809822;29;20050;-84
2024/03/27 09:43:13;;;;;;;8.95;5.75;;;9.70;99.90;;;;;;4810117;29;20137;-83
2024/03/27 09:45:41;;;;;;;11.55;7.88;;;9.70;99.90;;;;;;4807587;29;20107;-82
2024/03/27 09:48:08;;;;;;;11.02;7.20;;;9.70;99.90;;;;;;4803217;29;20046;-81
2024/03/27 09:50:38;;;;;;;10.65;7.35;;;9.70;99.90;;;;;;4809567;29;20055;-82
2024/03/27 09:53:06;;;;;;;10.10;6.45;;;9.70;99.90;;;;;;4779900;29;20050;-81
2024/03/27 09:55:36;;;;;;;10.57;6.95;;;9.70;99.90;;;;;;4794039;29;20504;-82
2024/03/27 09:58:08;;;;;;;9.27;6.53;;;9.80;99.90;;;;;;4780362;29;20118;-83
2024/03/27 10:00:36;;;;;;;11.30;6.80;;;9.90;99.90;;;;;;4809458;29;20043;-82
2024/03/27 10:03:03;;;;;;;11.15;7.78;;;9.90;99.90;;;;;;4794047;29;20056;-80
2024/03/27 10:05:29;;;;;;;10.65;6.10;;;9.90;99.90;;;;;;4794362;29;20077;-82
2024/03/27 10:07:56;;;;;;;11.82;7.68;;;10.00;99.90;;;;;;4781491;29;20061;-80
2024/03/27 10:10:22;;;;;;;11.70;7.22;;;10.00;99.90;;;;;;4808872;29;20196;-81
2024/03/27 10:12:49;;;;;;;11.32;6.70;;;9.90;99.90;;;;;;4775747;29;20138;-83
2024/03/27 10:15:15;;;;;;;11.43;7.30;;;9.90;99.90;;;;;;4803332;29;20093;-81
2024/03/27 10:17:42;;;;;;;11.10;6.95;;;9.90;99.90;;;;;;4794613;29;20415;-83
2024/03/27 10:20:12;;;;;;;10.32;7.03;;;9.90;99.90;;;;;;4803611;29;20518;-83
2024/03/27 10:22:39;;;;;;;10.95;6.97;;;9.80;99.90;;;;;;4794794;29;20054;-82
2024/03/27 10:25:07;;;;;;;9.15;5.80;;;9.80;99.90;;;;;;4809541;29;20054;-82
2024/03/27 10:27:35;;;;;;;7.22;4.40;;;9.80;99.90;;;;;;4793894;29;20107;-82
2024/03/27 10:30:02;;;;;;;8.05;4.65;;;9.80;99.90;;;;;;4793750;29;20057;-80
2024/03/27 10:32:28;;;;;;;6.68;4.10;;;9.90;99.90;;;;;;4793605;29;20419;-82
2024/03/27 10:34:55;;;;;;;9.05;4.60;;;9.90;99.90;;;;;;4778725;29;20061;-82
2024/03/27 10:37:22;;;;;;;7.80;4.70;;;9.80;99.90;;;;;;4793585;29;20444;-81
2024/03/27 10:39:50;;;;;;;6.88;3.72;;;9.70;99.90;;;;;;4808712;29;20050;-78
2024/03/27 10:42:22;;;;;;;8.85;4.03;;;9.70;99.90;;;;;;4793641;29;20476;-78
2024/03/27 10:44:49;;;;;;;7.53;4.03;;;9.60;99.90;;;;;;4808495;29;20080;-78
2024/03/27 10:47:21;;;;;;;5.75;3.30;;;9.60;99.90;;;;;;4780032;29;20077;-78
2024/03/27 10:49:47;;;;;;;7.03;3.80;;;9.60;99.90;;;;;;4793692;29;20427;-78
2024/03/27 10:52:14;;;;;;;7.60;3.15;;;9.60;99.90;;;;;;4778628;29;20050;-78
2024/03/27 10:54:47;;;;;;;5.97;3.53;;;9.60;99.90;;;;;;4793267;29;20492;-78
2024/03/27 10:57:17;;;;;;;5.28;2.40;;;9.70;99.90;;;;;;4793273;29;20053;-77
2024/03/27 10:59:46;;;;;;;5.13;2.65;;;9.70;99.90;;;;;;4778502;29;20061;-78
2024/03/27 11:02:13;;;;;;;6.93;3.63;;;9.80;99.90;;;;;;4778723;29;20046;-78
2024/03/27 11:04:41;;;;;;;7.57;3.75;;;9.70;99.90;;;;;;4805102;29;20046;-79
2024/03/27 11:07:07;;;;;;;6.82;3.63;;;9.80;99.90;;;;;;4793134;29;20156;-78
2024/03/27 11:09:47;;;;;;;5.93;4.00;;;9.80;99.90;;;;;;4792954;29;20515;-77
2024/03/27 11:12:13;;;;;;;7.97;4.18;;;9.80;99.90;;;;;;4779618;29;20404;-77
2024/03/27 11:14:39;;;;;;;9.18;4.38;;;9.80;99.90;;;;;;4779210;29;20047;-78
2024/03/27 11:17:09;;;;;;;7.88;3.47;;;9.80;99.90;;;;;;4778216;29;20038;-78
2024/03/27 11:19:39;;;;;;;9.20;4.50;;;9.80;99.90;;;;;;4807907;29;20098;-78
2024/03/27 11:22:12;;;;;;;7.95;3.70;;;9.80;99.90;;;;;;4778025;29;20066;-77
2024/03/27 11:24:38;;;;;;;7.20;3.45;;;9.80;99.90;;;;;;4792786;29;20066;-78
2024/03/27 11:27:04;;;;;;;6.55;3.42;;;9.80;99.90;;;;;;4807764;29;20042;-78
2024/03/27 11:29:32;;;;;;;7.30;3.50;;;9.80;99.90;;;;;;4793136;29;20049;-78
2024/03/27 11:32:02;;;;;;;5.53;3.40;;;9.80;99.90;;;;;;4779532;29;20095;-77
2024/03/27 11:34:29;;;;;;;6.78;3.70;;;9.80;99.90;;;;;;4807542;29;20050;-77
2024/03/27 11:36:56;;;;;;;7.80;3.10;;;9.90;99.90;;;;;;4777889;29;20046;-78
2024/03/27 11:39:24;;;;;;;6.75;3.17;;;9.90;99.90;;;;;;4792862;29;20053;-78
2024/03/27 11:41:56;;;;;;;5.55;2.58;;;9.80;99.90;;;;;;4777932;29;20054;-78
2024/03/27 11:44:22;;;;;;;5.15;2.40;;;9.90;99.90;;;;;;4792584;29;20054;-77
2024/03/27 11:46:48;;;;;;;5.40;2.63;;;9.90;99.90;;;;;;4792915;29;20042;-78
2024/03/27 11:49:15;;;;;;;4.97;2.60;;;10.00;99.90;;;;;;4774867;29;20042;-78
2024/03/27 11:51:41;;;;;;;5.47;2.80;;;10.00;99.90;;;;;;4785945;29;20050;-78
2024/03/27 11:54:08;;;;;;;5.47;2.53;;;10.00;99.90;;;;;;4777865;29;20051;-78
2024/03/27 11:56:36;;;;;;;6.50;2.67;;;10.00;99.90;;;;;;4805965;29;20078;-78
2024/03/27 11:59:03;;;;;;;5.88;3.03;;;10.00;99.90;;;;;;4805348;29;20047;-79
2024/03/27 12:01:30;;;;;;;5.80;2.70;;;10.00;99.90;;;;;;4778266;29;20511;-78
2024/03/27 12:03:57;;;;;;;6.13;3.00;;;10.00;99.90;;;;;;4792979;29;20057;-78
2024/03/27 12:06:27;;;;;;;6.63;3.22;;;9.90;99.90;;;;;;4776921;29;20407;-79
2024/03/27 12:08:53;;;;;;;6.00;3.28;;;9.80;99.90;;;;;;4777552;29;20550;-77
2024/03/27 12:11:23;;;;;;;5.00;2.47;;;9.80;99.90;;;;;;4792363;29;20051;-77
2024/03/27 12:13:50;;;;;;;4.97;2.33;;;9.90;99.90;;;;;;4808639;29;20046;-77
2024/03/27 12:16:17;;;;;;;4.30;1.75;;;9.90;99.90;;;;;;4807123;29;20092;-77
2024/03/27 12:18:46;;;;;;;3.17;1.30;;;10.10;99.90;;;;;;4806875;29;20107;-77
2024/03/27 12:21:13;;;;;;;3.35;1.55;;;10.20;99.90;;;;;;4791775;29;20062;-77
2024/03/27 12:23:41;;;;;;;4.90;1.40;;;10.40;99.90;;;;;;4784441;29;20051;-77
2024/03/27 12:26:15;;;;;;;3.63;1.77;;;10.50;99.90;;;;;;4816066;29;20441;-77
2024/03/27 12:28:43;;;;;;;4.75;2.50;;;10.60;99.90;;;;;;4792959;29;20065;-77
2024/03/27 12:31:10;;;;;;;4.55;1.80;;;10.60;99.90;;;;;;4792336;29;20560;-77
2024/03/27 12:33:37;;;;;;;3.47;1.73;;;10.50;99.90;;;;;;4804994;29;20038;-77
2024/03/27 12:36:03;;;;;;;3.40;1.45;;;10.40;99.90;;;;;;4778477;29;20053;-77
2024/03/27 12:38:32;;;;;;;3.67;1.73;;;10.40;99.90;;;;;;4807971;29;20061;-77
2024/03/27 12:40:58;;;;;;;3.25;1.70;;;10.50;99.90;;;;;;4778475;29;20081;-77
2024/03/27 12:43:24;;;;;;;3.20;1.67;;;10.60;99.90;;;;;;4814999;29;20050;-79
2024/03/27 12:45:50;;;;;;;2.80;1.20;;;10.70;99.90;;;;;;4808000;29;20441;-80
2024/03/27 12:48:23;;;;;;;3.63;1.58;;;10.90;99.90;;;;;;4784307;29;20052;-91
2024/03/27 12:50:50;;;;;;;4.38;1.98;;;11.00;99.90;;;;;;4796965;29;20075;-90